createdAt,value
2022-11-15T00:01:00.528Z,38.10
2022-11-15T00:03:46.991Z,36.20
2022-11-15T00:06:32.075Z,40.58
2022-11-15T00:09:17.229Z,41.45
2022-11-15T00:12:02.195Z,27.90
2022-11-15T00:14:47.152Z,45.25
2022-11-15T00:17:31.961Z,33.88
2022-11-15T00:20:18.524Z,41.38
2022-11-15T00:23:05.294Z,41.45
2022-11-15T00:25:57.407Z,31.15
2022-11-15T00:28:43.038Z,41.83
2022-11-15T00:31:28.250Z,40.03
2022-11-15T00:34:13.182Z,35.22
2022-11-15T00:36:58.493Z,46.72
2022-11-15T00:39:43.358Z,37.08
2022-11-15T00:42:28.321Z,49.72
2022-11-15T00:45:13.230Z,37.20
2022-11-15T00:47:58.159Z,51.70
2022-11-15T00:50:43.171Z,41.47
2022-11-15T00:53:28.534Z,35.35
2022-11-15T00:56:13.773Z,51.80
2022-11-15T00:58:58.642Z,41.50
2022-11-15T01:01:43.831Z,37.80
2022-11-15T01:04:28.785Z,47.45
2022-11-15T01:07:14.176Z,40.60
2022-11-15T01:09:59.503Z,40.20
2022-11-15T01:12:44.507Z,38.78
2022-11-15T01:15:29.434Z,41.13
2022-11-15T01:18:14.337Z,51.17
2022-11-15T01:20:59.198Z,55.17
2022-11-15T01:23:44.409Z,56.70
2022-11-15T01:26:29.204Z,63.03
2022-11-15T01:29:14.560Z,57.20
2022-11-15T01:31:59.500Z,55.85
2022-11-15T01:34:44.527Z,49.15
2022-11-15T01:37:29.633Z,57.33
2022-11-15T01:40:14.669Z,61.15
2022-11-15T01:42:59.666Z,52.92
2022-11-15T01:45:46.750Z,55.47
2022-11-15T01:48:35.367Z,48.28
2022-11-15T01:51:22.866Z,58.65
2022-11-15T01:54:16.683Z,67.43
2022-11-15T01:57:09.502Z,61.35
2022-11-15T01:59:55.112Z,58.97
2022-11-15T02:02:41.046Z,57.33
2022-11-15T02:05:27.314Z,57.95
2022-11-15T02:08:20.797Z,55.55
2022-11-15T02:11:09.163Z,62.55
2022-11-15T02:13:55.209Z,39.13
2022-11-15T02:16:49.428Z,63.13
2022-11-15T02:19:34.178Z,40.47
2022-11-15T02:22:22.011Z,66.35
2022-11-15T02:25:25.187Z,55.85
2022-11-15T02:28:25.806Z,61.13
2022-11-15T02:31:36.565Z,42.20
2022-11-15T02:34:29.588Z,63.15
2022-11-15T02:37:20.193Z,56.67
2022-11-15T02:43:27.493Z,49.78
2022-11-15T02:46:45.416Z,57.75
2022-11-15T02:49:34.319Z,58.67
2022-11-15T02:52:22.312Z,49.20
2022-11-15T02:55:27.022Z,44.83
2022-11-15T02:58:30.698Z,50.17
2022-11-15T03:01:37.189Z,59.58
2022-11-15T03:04:47.143Z,34.83
2022-11-15T03:07:39.718Z,53.50
2022-11-15T03:10:37.774Z,36.25
2022-11-15T03:13:38.739Z,61.35
2022-11-15T03:16:55.322Z,55.63
2022-11-15T03:19:46.856Z,61.92
2022-11-15T03:22:37.687Z,51.92
2022-11-15T03:25:26.966Z,47.67
2022-11-15T03:28:15.980Z,45.85
2022-11-15T03:31:24.185Z,45.40
2022-11-15T03:34:15.166Z,62.97
2022-11-15T03:37:00.477Z,63.97
2022-11-15T03:39:45.726Z,61.28
2022-11-15T03:42:58.614Z,52.65
2022-11-15T03:45:59.819Z,55.45
2022-11-15T03:48:50.960Z,54.55
2022-11-15T03:51:36.039Z,59.10
2022-11-15T03:54:21.295Z,47.15
2022-11-15T03:57:06.048Z,58.50
2022-11-15T03:59:50.967Z,45.42
2022-11-15T04:02:35.702Z,47.22
2022-11-15T04:05:21.036Z,61.25
2022-11-15T04:08:05.886Z,50.25
2022-11-15T04:10:50.872Z,54.20
2022-11-15T04:13:36.026Z,52.95
2022-11-15T04:16:21.046Z,63.05
2022-11-15T04:19:24.473Z,50.50
2022-11-15T04:22:28.378Z,62.20
2022-11-15T04:25:13.551Z,55.88
2022-11-15T04:27:58.542Z,56.13
2022-11-15T04:30:43.494Z,62.60
2022-11-15T04:33:28.427Z,61.17
2022-11-15T04:36:32.572Z,57.67
2022-11-15T04:39:17.760Z,57.83
2022-11-15T04:42:02.807Z,46.92
2022-11-15T04:44:47.716Z,57.15
2022-11-15T04:47:32.519Z,44.90
2022-11-15T04:50:18.043Z,52.10
2022-11-15T04:53:03.267Z,56.50
2022-11-15T04:55:48.208Z,45.95
2022-11-15T04:58:33.095Z,47.42
2022-11-15T05:01:18.472Z,46.67
2022-11-15T05:04:22.121Z,48.38
2022-11-15T05:07:06.986Z,56.55
2022-11-15T05:09:52.393Z,49.85
2022-11-15T05:12:37.545Z,59.60
2022-11-15T05:15:23.099Z,47.00
2022-11-15T05:18:08.161Z,51.83
2022-11-15T05:20:53.163Z,46.58
2022-11-15T05:23:38.635Z,47.35
2022-11-15T05:26:23.524Z,46.38
2022-11-15T05:29:11.469Z,50.97
2022-11-15T05:31:56.623Z,55.83
2022-11-15T05:34:41.590Z,38.28
2022-11-15T05:37:26.595Z,43.53
2022-11-15T05:40:11.515Z,41.03
2022-11-15T05:42:57.179Z,50.95
2022-11-15T05:45:42.283Z,48.53
2022-11-15T05:48:28.226Z,52.35
2022-11-15T05:51:15.136Z,32.33
2022-11-15T05:54:01.359Z,42.05
2022-11-15T05:56:47.043Z,41.08
2022-11-15T05:59:33.095Z,51.40
2022-11-15T06:02:18.064Z,35.42
2022-11-15T06:05:03.009Z,48.35
2022-11-15T06:07:48.099Z,57.05
2022-11-15T06:10:33.849Z,53.00
2022-11-15T06:13:18.932Z,42.58
2022-11-15T06:16:04.158Z,46.22
2022-11-15T06:18:49.325Z,38.25
2022-11-15T06:21:34.453Z,53.53
2022-11-15T06:24:19.389Z,49.60
2022-11-15T06:27:04.514Z,44.95
2022-11-15T06:29:49.758Z,47.50
2022-11-15T06:32:34.581Z,49.65
2022-11-15T06:35:19.629Z,45.65
2022-11-15T06:38:07.287Z,54.58
2022-11-15T06:40:52.382Z,33.17
2022-11-15T06:43:38.538Z,41.78
2022-11-15T06:46:23.633Z,51.25
2022-11-15T06:49:09.939Z,47.33
2022-11-15T06:51:55.185Z,54.13
2022-11-15T06:54:40.179Z,39.95
2022-11-15T06:57:25.213Z,46.67
2022-11-15T07:00:13.913Z,51.40
2022-11-15T07:03:01.541Z,61.30
2022-11-15T07:05:55.363Z,47.28
2022-11-15T07:08:42.529Z,48.50
2022-11-15T07:11:27.563Z,48.75
2022-11-15T07:14:12.451Z,54.72
2022-11-15T07:16:58.425Z,65.95
2022-11-15T07:19:43.240Z,50.03
2022-11-15T07:22:28.226Z,50.67
2022-11-15T07:25:13.016Z,54.25
2022-11-15T07:27:59.320Z,56.78
2022-11-15T07:30:46.862Z,36.08
2022-11-15T07:33:32.391Z,42.35
2022-11-15T07:36:17.915Z,46.97
2022-11-15T07:39:03.145Z,43.50
2022-11-15T07:41:49.101Z,57.97
2022-11-15T07:44:34.207Z,46.50
2022-11-15T07:47:19.670Z,52.03
2022-11-15T07:50:05.343Z,51.75
2022-11-15T07:53:00.895Z,52.22
2022-11-15T07:55:46.214Z,47.38
2022-11-15T07:58:31.085Z,55.97
2022-11-15T08:01:16.043Z,50.72
2022-11-15T08:04:01.357Z,52.70
2022-11-15T08:07:10.720Z,47.42
2022-11-15T08:09:56.211Z,53.97
2022-11-15T08:12:41.153Z,49.55
2022-11-15T08:15:26.903Z,36.70
2022-11-15T08:18:16.684Z,48.78
2022-11-15T08:21:02.275Z,53.67
2022-11-15T08:23:47.546Z,49.78
2022-11-15T08:26:32.354Z,41.22
2022-11-15T08:29:17.152Z,47.92
2022-11-15T08:32:01.998Z,42.90
2022-11-15T08:34:47.015Z,46.67
2022-11-15T08:37:32.273Z,43.00
2022-11-15T08:40:18.460Z,44.25
2022-11-15T08:43:03.934Z,53.25
2022-11-15T08:45:49.179Z,51.97
2022-11-15T08:48:34.344Z,54.63
2022-11-15T08:51:19.610Z,50.38
2022-11-15T08:54:05.031Z,44.05
2022-11-15T08:56:50.227Z,47.08
2022-11-15T08:59:35.167Z,43.42
2022-11-15T09:02:20.085Z,46.10
2022-11-15T09:05:06.508Z,48.80
2022-11-15T09:07:56.164Z,50.25
2022-11-15T09:10:49.829Z,43.25
2022-11-15T09:13:35.736Z,38.78
2022-11-15T09:21:11.503Z,31.95
2022-11-15T09:23:57.019Z,48.35
2022-11-15T09:26:42.225Z,39.53
2022-11-15T09:29:27.583Z,37.70
2022-11-15T09:32:12.728Z,33.80
2022-11-15T09:34:58.460Z,33.78
2022-11-15T09:37:43.759Z,40.88
2022-11-15T09:40:32.073Z,37.75
2022-11-15T09:43:38.363Z,39.15
2022-11-15T09:46:38.682Z,39.50
2022-11-15T09:49:25.136Z,35.22
2022-11-15T09:52:11.368Z,34.13
2022-11-15T09:54:56.275Z,36.70
2022-11-15T09:57:38.672Z,37.17
2022-11-15T10:03:24.755Z,32.85
2022-11-15T10:05:55.161Z,33.60
2022-11-15T10:08:52.768Z,31.13
2022-11-15T10:11:38.259Z,29.35
2022-11-15T10:14:19.331Z,30.27
2022-11-15T10:17:04.793Z,35.40
2022-11-15T10:20:06.603Z,30.98
2022-11-15T10:22:48.512Z,34.13
2022-11-15T10:25:25.406Z,33.28
2022-11-15T10:28:00.155Z,34.08
2022-11-15T10:30:57.667Z,34.65
2022-11-15T10:33:38.049Z,31.00
2022-11-15T10:36:09.735Z,34.85
2022-11-15T10:38:51.564Z,36.20
2022-11-15T10:41:28.348Z,30.17
2022-11-15T10:44:24.643Z,37.15
2022-11-15T10:46:57.513Z,34.47
2022-11-15T10:49:29.748Z,33.58
2022-11-15T10:52:13.080Z,32.85
2022-11-15T10:54:56.875Z,28.02
2022-11-15T10:57:27.722Z,33.20
2022-11-15T11:00:01.361Z,33.22
2022-11-15T11:02:33.909Z,29.35
2022-11-15T11:05:01.476Z,35.20
2022-11-15T11:07:31.348Z,30.25
2022-11-15T11:10:00.558Z,31.30
2022-11-15T11:12:32.586Z,29.25
2022-11-15T11:15:00.915Z,30.00
2022-11-15T11:18:17.563Z,31.60
2022-11-15T11:20:54.528Z,31.08
2022-11-15T11:23:47.344Z,29.45
2022-11-15T11:26:37.010Z,27.13
2022-11-15T11:29:13.876Z,27.83
2022-11-15T11:32:22.397Z,27.77
2022-11-15T11:34:54.619Z,27.52
2022-11-15T11:37:30.182Z,26.17
2022-11-15T11:40:23.566Z,28.95
2022-11-15T11:43:00.382Z,25.08
2022-11-15T11:45:58.938Z,24.98
2022-11-15T11:48:45.211Z,23.58
2022-11-15T11:51:24.257Z,26.92
2022-11-15T11:53:56.982Z,30.60
2022-11-15T11:56:30.077Z,28.05
2022-11-15T11:59:06.928Z,29.50
2022-11-15T12:01:38.677Z,26.05
2022-11-15T12:04:17.540Z,27.35
2022-11-15T12:06:52.913Z,26.63
2022-11-15T12:09:36.190Z,30.17
2022-11-15T12:12:33.196Z,30.35
2022-11-15T12:15:03.319Z,25.05
2022-11-15T12:17:32.998Z,29.42
2022-11-15T12:20:02.409Z,26.33
2022-11-15T12:22:54.549Z,28.20
2022-11-15T12:25:26.636Z,25.92
2022-11-15T12:28:02.912Z,25.02
2022-11-15T12:30:52.658Z,27.10
2022-11-15T12:33:35.492Z,26.20
2022-11-15T12:36:25.067Z,26.73
2022-11-15T12:39:10.805Z,28.52
2022-11-15T12:41:42.981Z,20.67
2022-11-15T12:44:33.149Z,26.52
2022-11-15T12:47:11.402Z,25.30
2022-11-15T12:49:37.845Z,28.77
2022-11-15T12:52:07.958Z,23.20
2022-11-15T12:54:37.056Z,23.67
2022-11-15T12:57:03.510Z,27.67
2022-11-15T13:00:05.232Z,21.95
2022-11-15T13:02:44.492Z,23.08
2022-11-15T13:05:16.986Z,23.70
2022-11-15T13:07:43.437Z,22.30
2022-11-15T13:10:12.859Z,24.55
2022-11-15T13:12:42.541Z,23.33
2022-11-15T13:15:14.686Z,23.15
2022-11-15T13:17:48.062Z,23.15
2022-11-15T13:20:17.469Z,23.13
2022-11-15T13:22:51.628Z,22.52
2022-11-15T13:25:37.082Z,23.15
2022-11-15T13:28:15.636Z,21.60
2022-11-15T13:30:51.156Z,26.13
2022-11-15T13:33:22.190Z,24.38
2022-11-15T13:35:57.804Z,22.98
2022-11-15T13:38:38.527Z,26.58
2022-11-15T13:41:21.170Z,24.92
2022-11-15T13:43:49.344Z,21.23
2022-11-15T13:46:21.879Z,25.52
2022-11-15T13:48:54.101Z,29.33
2022-11-15T13:51:26.235Z,25.15
2022-11-15T13:53:59.412Z,24.75
2022-11-15T13:56:28.523Z,24.25
2022-11-15T13:58:55.850Z,23.83
2022-11-15T14:01:24.801Z,23.77
2022-11-15T14:03:58.572Z,24.35
2022-11-15T14:06:30.320Z,23.13
2022-11-15T14:09:17.054Z,23.83
2022-11-15T14:11:55.156Z,21.30
2022-11-15T14:14:26.712Z,25.85
2022-11-15T14:17:00.985Z,25.80
2022-11-15T14:19:27.365Z,26.15
2022-11-15T14:22:18.491Z,23.65
2022-11-15T14:24:48.034Z,27.10
2022-11-15T14:27:17.425Z,23.15
2022-11-15T14:29:43.873Z,26.90
2022-11-15T14:32:21.918Z,26.35
2022-11-15T14:34:50.386Z,25.67
2022-11-15T14:37:24.195Z,26.83
2022-11-15T14:39:51.422Z,28.98
2022-11-15T14:42:18.630Z,25.20
2022-11-15T14:44:46.285Z,23.48
2022-11-15T14:47:13.235Z,23.65
2022-11-15T14:49:40.111Z,25.05
2022-11-15T14:52:32.165Z,25.13
2022-11-15T14:55:00.185Z,25.83
2022-11-15T14:57:26.767Z,24.58
2022-11-15T14:59:54.059Z,24.70
2022-11-15T15:02:22.538Z,24.38
2022-11-15T15:04:50.306Z,24.35
2022-11-15T15:07:17.997Z,26.33
2022-11-15T15:09:45.195Z,29.17
2022-11-15T15:12:18.013Z,25.52
2022-11-15T15:14:45.691Z,27.08
2022-11-15T15:17:12.197Z,25.20
2022-11-15T15:19:38.645Z,24.40
2022-11-15T15:22:05.451Z,25.95
2022-11-15T15:24:31.885Z,27.15
2022-11-15T15:26:58.335Z,24.05
2022-11-15T15:29:24.781Z,28.02
2022-11-15T15:31:51.218Z,26.17
2022-11-15T15:34:17.665Z,28.23
2022-11-15T15:37:25.671Z,23.55
2022-11-15T15:39:54.832Z,27.40
2022-11-15T15:42:22.455Z,24.45
2022-11-15T15:44:50.340Z,26.00
2022-11-15T15:47:23.225Z,29.42
2022-11-15T15:49:51.060Z,29.23
2022-11-15T15:52:18.081Z,27.35
2022-11-15T15:54:44.663Z,25.67
2022-11-15T15:57:14.456Z,25.48
2022-11-15T15:59:41.494Z,26.75
2022-11-15T16:02:12.512Z,26.73
2022-11-15T16:04:39.087Z,25.17
2022-11-15T16:07:05.678Z,21.38
2022-11-15T16:09:51.003Z,26.60
2022-11-15T16:12:17.614Z,27.45
2022-11-15T16:14:44.060Z,24.38
2022-11-15T16:17:17.831Z,22.60
2022-11-15T16:19:44.274Z,26.45
2022-11-15T16:22:10.722Z,24.60
2022-11-15T16:24:37.268Z,29.73
2022-11-15T16:27:03.780Z,27.45
2022-11-15T16:29:30.640Z,25.42
2022-11-15T16:31:57.130Z,28.85
2022-11-15T16:34:23.736Z,24.88
2022-11-15T16:36:51.171Z,23.45
2022-11-15T16:39:19.421Z,26.83
2022-11-15T16:41:47.680Z,28.20
2022-11-15T16:44:14.882Z,29.05
2022-11-15T16:46:43.063Z,29.60
2022-11-15T16:49:15.369Z,23.27
2022-11-15T16:51:44.898Z,25.10
2022-11-15T16:54:11.355Z,21.42
2022-11-15T16:56:38.436Z,23.83
2022-11-15T16:59:05.287Z,24.60
2022-11-15T17:01:35.721Z,24.20
2022-11-15T17:04:16.391Z,26.02
2022-11-15T17:06:45.157Z,21.13
2022-11-15T17:09:17.139Z,26.50
2022-11-15T17:11:44.487Z,23.58
2022-11-15T17:14:11.943Z,25.45
2022-11-15T17:16:42.316Z,27.27
2022-11-15T17:19:14.256Z,24.45
2022-11-15T17:21:41.309Z,23.13
2022-11-15T17:24:07.995Z,20.58
2022-11-15T17:26:39.217Z,23.20
2022-11-15T17:29:08.051Z,26.42
2022-11-15T17:31:36.218Z,29.83
2022-11-15T17:34:05.104Z,26.38
2022-11-15T17:36:32.221Z,26.13
2022-11-15T17:38:59.920Z,24.88
2022-11-15T17:41:27.977Z,26.60
2022-11-15T17:43:58.011Z,26.58
2022-11-15T17:46:24.556Z,23.33
2022-11-15T17:48:51.083Z,25.70
2022-11-15T17:51:18.817Z,22.23
2022-11-15T17:53:47.198Z,24.30
2022-11-15T17:56:18.866Z,25.67
2022-11-15T17:58:59.556Z,26.02
2022-11-15T18:01:28.885Z,23.70
2022-11-15T18:03:57.087Z,29.40
2022-11-15T18:06:24.790Z,24.63
2022-11-15T18:08:53.608Z,27.55
2022-11-15T18:11:22.777Z,23.13
2022-11-15T18:13:57.345Z,27.38
2022-11-15T18:16:26.214Z,24.25
2022-11-15T18:18:53.856Z,22.55
2022-11-15T18:21:23.013Z,28.00
2022-11-15T18:23:54.195Z,25.85
2022-11-15T18:26:25.748Z,23.70
2022-11-15T18:28:56.064Z,25.45
2022-11-15T18:31:27.896Z,24.98
2022-11-15T18:33:54.913Z,24.88
2022-11-15T18:36:24.213Z,27.33
2022-11-15T18:39:04.508Z,27.55
2022-11-15T18:41:32.554Z,27.67
2022-11-15T18:44:00.985Z,23.60
2022-11-15T18:46:30.771Z,25.38
2022-11-15T18:48:59.558Z,26.05
2022-11-15T18:51:29.908Z,23.83
2022-11-15T18:53:59.284Z,25.05
2022-11-15T18:56:27.746Z,24.60
2022-11-15T18:58:56.291Z,26.50
2022-11-15T19:01:28.279Z,25.13
2022-11-15T19:03:58.130Z,26.55
2022-11-15T19:06:28.906Z,23.55
2022-11-15T19:08:57.324Z,20.17
2022-11-15T19:11:32.427Z,21.90
2022-11-15T19:14:03.017Z,22.05
2022-11-15T19:16:31.313Z,25.92
2022-11-15T19:18:59.859Z,28.38
2022-11-15T19:21:27.403Z,25.58
2022-11-15T19:23:54.256Z,19.95
2022-11-15T19:26:22.491Z,24.52
2022-11-15T19:28:53.928Z,24.60
2022-11-15T19:31:21.965Z,25.67
2022-11-15T19:33:48.395Z,27.58
2022-11-15T19:36:26.921Z,21.42
2022-11-15T19:38:54.505Z,23.63
2022-11-15T19:41:22.884Z,26.00
2022-11-15T19:43:53.074Z,23.25
2022-11-15T19:46:21.887Z,22.73
2022-11-15T19:48:48.554Z,24.10
2022-11-15T19:51:19.185Z,25.55
2022-11-15T19:53:45.877Z,22.30
2022-11-15T19:56:14.446Z,23.00
2022-11-15T19:58:41.519Z,23.05
2022-11-15T20:01:14.955Z,23.38
2022-11-15T20:03:41.664Z,24.58
2022-11-15T20:06:11.050Z,21.35
2022-11-15T20:08:37.952Z,24.52
2022-11-15T20:11:05.654Z,23.55
2022-11-15T20:13:32.304Z,23.65
2022-11-15T20:15:59.585Z,23.35
2022-11-15T20:18:28.012Z,21.90
2022-11-15T20:20:56.530Z,18.65
2022-11-15T20:23:23.279Z,23.95
2022-11-15T20:25:50.254Z,18.98
2022-11-15T20:28:36.905Z,23.20
2022-11-15T20:31:04.318Z,20.27
2022-11-15T20:33:30.814Z,25.25
2022-11-15T20:35:57.317Z,24.20
2022-11-15T20:38:24.265Z,26.02
2022-11-15T20:40:56.021Z,19.23
2022-11-15T20:43:25.483Z,22.83
2022-11-15T20:45:52.055Z,19.23
2022-11-15T20:48:18.548Z,21.40
2022-11-15T20:50:46.531Z,21.55
2022-11-15T20:53:15.513Z,19.83
2022-11-15T20:55:44.383Z,20.63
2022-11-15T20:58:11.593Z,23.27
2022-11-15T21:00:38.399Z,19.83
2022-11-15T21:03:08.736Z,24.10
2022-11-15T21:05:38.486Z,19.35
2022-11-15T21:08:05.252Z,21.67
2022-11-15T21:10:51.014Z,20.98
2022-11-15T21:13:17.691Z,20.77
2022-11-15T21:15:44.179Z,18.92
2022-11-15T21:18:10.645Z,17.60
2022-11-15T21:20:37.175Z,19.38
2022-11-15T21:23:03.827Z,18.10
2022-11-15T21:25:30.286Z,18.58
2022-11-15T21:27:56.730Z,15.90
2022-11-15T21:30:23.237Z,24.25
2022-11-15T21:32:49.727Z,19.05
2022-11-15T21:35:16.290Z,20.17
2022-11-15T21:37:42.836Z,18.92
2022-11-15T21:40:09.880Z,17.92
2022-11-15T21:42:36.329Z,20.88
2022-11-15T21:45:03.659Z,20.33
2022-11-15T21:47:30.316Z,21.83
2022-11-15T21:49:56.999Z,16.02
2022-11-15T21:52:23.421Z,18.20
2022-11-15T21:54:49.859Z,20.00
2022-11-15T21:57:16.322Z,17.35
2022-11-15T22:00:01.521Z,19.10
2022-11-15T22:02:30.981Z,16.00
2022-11-15T22:04:57.604Z,17.75
2022-11-15T22:07:24.069Z,18.40
2022-11-15T22:09:50.683Z,19.73
2022-11-15T22:12:17.126Z,16.55
2022-11-15T22:14:43.566Z,20.08
2022-11-15T22:17:10.517Z,20.20
2022-11-15T22:19:51.559Z,20.65
2022-11-15T22:22:18.976Z,17.13
2022-11-15T22:24:45.495Z,19.73
2022-11-15T22:27:11.933Z,13.98
2022-11-15T22:29:38.389Z,16.10
2022-11-15T22:32:04.950Z,20.42
2022-11-15T22:34:31.450Z,17.00
2022-11-15T22:39:44.318Z,17.05
2022-11-15T22:42:10.813Z,17.77
2022-11-15T22:44:37.303Z,18.63
2022-11-15T22:47:03.782Z,19.08
2022-11-15T22:49:30.236Z,19.83
2022-11-15T22:51:56.678Z,16.80
2022-11-15T22:54:23.175Z,15.40
2022-11-15T22:56:49.778Z,15.60
2022-11-15T22:59:16.222Z,12.20
2022-11-15T23:01:42.972Z,16.80
2022-11-15T23:04:09.406Z,18.00
2022-11-15T23:06:35.965Z,16.40
2022-11-15T23:09:02.436Z,20.40
2022-11-15T23:11:49.178Z,14.43
2022-11-15T23:14:15.803Z,13.55
2022-11-15T23:16:42.329Z,17.88
2022-11-15T23:19:10.640Z,13.90
2022-11-15T23:22:00.296Z,14.98
2022-11-15T23:24:27.238Z,12.93
2022-11-15T23:26:56.927Z,14.90
2022-11-15T23:29:25.385Z,12.52
2022-11-15T23:32:12.196Z,14.02
2022-11-15T23:34:41.598Z,14.70
2022-11-15T23:37:09.825Z,16.17
2022-11-15T23:39:36.323Z,14.10
2022-11-15T23:42:07.688Z,14.95
2022-11-15T23:44:35.713Z,15.00
2022-11-15T23:47:02.293Z,14.05
2022-11-15T23:49:28.730Z,16.27
2022-11-15T23:51:55.310Z,16.50
2022-11-15T23:54:21.791Z,12.63
2022-11-15T23:56:48.262Z,15.00
2022-11-15T23:59:14.741Z,13.82
